createdAt,value
2022-08-09T00:00:01.028Z,95.32
2022-08-09T00:02:37.453Z,95.58
2022-08-09T00:06:19.832Z,96.19
2022-08-09T00:08:11.047Z,96.42
2022-08-09T00:10:40.768Z,96.07
2022-08-09T00:13:16.760Z,95.69
2022-08-09T00:15:59.800Z,96.62
2022-08-09T00:18:34.745Z,96.88
2022-08-09T00:21:08.327Z,97.69
2022-08-09T00:23:56.146Z,97.07
2022-08-09T00:26:32.343Z,97.06
2022-08-09T00:29:01.727Z,96.82
2022-08-09T00:31:57.216Z,97.12
2022-08-09T00:34:19.194Z,96.73
2022-08-09T00:36:48.771Z,97.56
2022-08-09T00:40:13.460Z,97.69
2022-08-09T00:44:16.063Z,97.27
2022-08-09T00:44:52.106Z,97.77
2022-08-09T00:47:24.817Z,97.93
2022-08-09T00:49:56.456Z,98.46
2022-08-09T00:52:30.700Z,98.16
2022-08-09T00:55:01.431Z,97.12
2022-08-09T00:57:34.762Z,97.38
2022-08-09T01:00:21.377Z,97.21
2022-08-09T01:02:54.536Z,97.70
2022-08-09T01:05:53.121Z,97.91
2022-08-09T01:08:51.588Z,97.62
2022-08-09T01:11:40.799Z,97.82
2022-08-09T01:14:26.250Z,97.92
2022-08-09T01:16:57.912Z,98.24
2022-08-09T01:19:42.347Z,98.80
2022-08-09T01:22:34.266Z,99.20
2022-08-09T01:25:26.891Z,99.14
2022-08-09T01:27:57.099Z,98.88
2022-08-09T01:30:28.515Z,98.77
2022-08-09T01:33:06.378Z,98.22
2022-08-09T01:36:11.723Z,98.05
2022-08-09T01:38:47.403Z,98.42
2022-08-09T01:41:17.900Z,97.98
2022-08-09T01:43:50.746Z,98.09
2022-08-09T01:46:26.780Z,97.96
2022-08-09T01:49:00.114Z,97.99
2022-08-09T01:51:32.620Z,97.91
2022-08-09T01:54:01.789Z,97.94
2022-08-09T01:56:30.863Z,98.23
2022-08-09T01:58:59.338Z,98.06
2022-08-09T02:01:30.649Z,97.51
2022-08-09T02:04:15.519Z,97.90
2022-08-09T02:07:02.659Z,98.12
2022-08-09T02:09:42.337Z,97.71
2022-08-09T02:12:13.358Z,98.39
2022-08-09T02:14:47.683Z,98.41
2022-08-09T02:18:00.079Z,98.46
2022-08-09T02:20:11.416Z,98.78
2022-08-09T02:22:50.352Z,98.58
2022-08-09T02:25:21.236Z,98.74
2022-08-09T02:28:00.177Z,98.56
2022-08-09T02:30:36.942Z,99.05
2022-08-09T02:33:07.830Z,99.01
2022-08-09T02:36:01.356Z,99.12
2022-08-09T02:38:32.787Z,99.88
2022-08-09T02:41:09.529Z,100.00
2022-08-09T02:43:54.196Z,100.00
2022-08-09T02:46:25.761Z,100.00
2022-08-09T02:48:59.505Z,100.00
2022-08-09T02:51:28.129Z,100.00
2022-08-09T02:54:06.702Z,100.00
2022-08-09T02:56:36.584Z,100.00
2022-08-09T02:59:05.163Z,100.00
2022-08-09T03:01:43.237Z,100.00
2022-08-09T03:04:26.208Z,100.00
2022-08-09T03:06:55.899Z,100.00
2022-08-09T03:09:33.607Z,100.00
2022-08-09T03:12:06.437Z,100.00
2022-08-09T03:14:40.774Z,100.00
2022-08-09T03:17:08.639Z,100.00
2022-08-09T03:19:58.827Z,100.00
2022-08-09T03:22:30.346Z,100.00
2022-08-09T03:25:21.381Z,100.00
2022-08-09T03:27:52.143Z,100.00
2022-08-09T03:30:29.652Z,100.00
2022-08-09T03:33:17.224Z,100.00
2022-08-09T03:36:12.553Z,100.00
2022-08-09T03:38:42.698Z,100.00
2022-08-09T03:41:16.720Z,100.00
2022-08-09T03:44:03.454Z,100.00
2022-08-09T03:46:34.490Z,100.00
2022-08-09T03:49:03.914Z,100.00
2022-08-09T03:51:55.455Z,100.00
2022-08-09T03:54:29.590Z,100.00
2022-08-09T03:57:18.099Z,100.00
2022-08-09T03:59:54.404Z,100.00
2022-08-09T04:02:28.791Z,100.00
2022-08-09T04:04:58.419Z,100.00
2022-08-09T04:07:33.926Z,100.00
2022-08-09T04:10:18.402Z,100.00
2022-08-09T04:12:52.574Z,100.00
2022-08-09T04:15:39.051Z,100.00
2022-08-09T04:18:16.426Z,100.00
2022-08-09T04:20:49.620Z,100.00
2022-08-09T04:23:17.770Z,100.00
2022-08-09T04:25:51.803Z,100.00
2022-08-09T04:28:30.798Z,100.00
2022-08-09T04:31:09.018Z,99.51
2022-08-09T04:33:51.381Z,98.17
2022-08-09T04:36:31.677Z,98.17
2022-08-09T04:39:01.702Z,97.33
2022-08-09T04:41:32.746Z,96.49
2022-08-09T04:44:06.026Z,79.62
2022-08-09T04:46:57.786Z,75.03
2022-08-09T04:49:40.096Z,73.62
2022-08-09T04:52:20.507Z,79.92
2022-08-09T04:54:53.939Z,83.79
2022-08-09T04:57:24.339Z,81.52
2022-08-09T04:59:54.157Z,82.13
2022-08-09T05:02:27.421Z,81.96
2022-08-09T05:04:56.182Z,83.43
2022-08-09T05:07:24.871Z,83.05
2022-08-09T05:09:54.939Z,83.21
2022-08-09T05:12:23.273Z,83.24
2022-08-09T05:14:50.741Z,83.28
2022-08-09T05:18:38.482Z,83.50
2022-08-09T05:20:06.355Z,83.35
2022-08-09T05:23:50.659Z,82.25
2022-08-09T05:25:21.669Z,82.10
2022-08-09T05:27:50.596Z,80.21
2022-08-09T05:30:19.485Z,78.98
2022-08-09T05:32:50.826Z,78.72
2022-08-09T05:35:22.024Z,78.72
2022-08-09T05:37:51.086Z,78.55
2022-08-09T05:40:18.589Z,78.08
2022-08-09T05:42:46.175Z,76.07
2022-08-09T05:45:14.669Z,74.19
2022-08-09T05:47:50.867Z,74.80
2022-08-09T05:50:44.107Z,75.16
2022-08-09T05:53:31.560Z,74.93
2022-08-09T05:55:58.994Z,74.21
2022-08-09T05:58:26.664Z,71.84
2022-08-09T06:00:53.905Z,70.43
2022-08-09T06:03:23.678Z,70.16
2022-08-09T06:06:04.342Z,70.20
2022-08-09T06:08:34.026Z,70.13
2022-08-09T06:11:01.245Z,69.09
2022-08-09T06:13:34.234Z,69.09
2022-08-09T06:16:04.527Z,68.94
2022-08-09T06:18:33.792Z,68.09
2022-08-09T06:21:02.238Z,67.94
2022-08-09T06:23:55.576Z,67.96
2022-08-09T06:26:22.088Z,67.10
2022-08-09T06:29:00.087Z,66.98
2022-08-09T06:31:39.877Z,66.72
2022-08-09T06:34:26.025Z,66.43
2022-08-09T06:36:59.060Z,66.37
2022-08-09T06:39:49.221Z,65.11
2022-08-09T06:42:24.773Z,63.42
2022-08-09T06:44:57.352Z,63.17
2022-08-09T06:47:24.891Z,64.80
2022-08-09T06:50:14.912Z,63.42
2022-08-09T06:52:48.741Z,63.35
2022-08-09T06:55:18.903Z,63.58
2022-08-09T06:58:02.060Z,65.41
2022-08-09T07:00:51.563Z,62.51
2022-08-09T07:03:20.166Z,61.75
2022-08-09T07:06:03.449Z,61.30
2022-08-09T07:08:37.342Z,61.75
2022-08-09T07:11:08.016Z,61.25
2022-08-09T07:13:45.094Z,62.37
2022-08-09T07:16:43.153Z,60.17
2022-08-09T07:19:15.440Z,60.02
2022-08-09T07:21:50.200Z,58.56
2022-08-09T07:24:32.691Z,59.84
2022-08-09T07:27:10.986Z,61.12
2022-08-09T07:29:56.878Z,61.03
2022-08-09T07:32:33.624Z,61.84
2022-08-09T07:35:10.032Z,62.39
2022-08-09T07:37:44.676Z,61.10
2022-08-09T07:40:18.917Z,59.40
2022-08-09T07:42:56.195Z,61.55
2022-08-09T07:45:37.573Z,59.82
2022-08-09T07:48:06.354Z,60.66
2022-08-09T07:50:36.779Z,60.79
2022-08-09T07:53:05.249Z,58.25
2022-08-09T07:55:41.767Z,58.87
2022-08-09T07:58:26.864Z,57.89
2022-08-09T08:00:59.006Z,56.89
2022-08-09T08:03:36.935Z,57.02
2022-08-09T08:06:05.372Z,58.11
2022-08-09T08:09:00.088Z,57.31
2022-08-09T08:12:09.896Z,56.96
2022-08-09T08:14:07.888Z,57.92
2022-08-09T08:16:36.449Z,57.53
2022-08-09T08:19:06.751Z,57.73
2022-08-09T08:21:33.944Z,56.19
2022-08-09T08:24:11.870Z,56.50
2022-08-09T08:26:54.691Z,56.74
2022-08-09T08:29:27.967Z,56.94
2022-08-09T08:32:02.630Z,56.00
2022-08-09T08:34:31.563Z,55.16
2022-08-09T08:37:21.311Z,54.47
2022-08-09T08:40:12.788Z,54.78
2022-08-09T08:43:00.307Z,54.67
2022-08-09T08:46:00.076Z,54.09
2022-08-09T08:48:57.586Z,54.43
2022-08-09T08:52:00.312Z,54.50
2022-08-09T08:54:48.927Z,54.12
2022-08-09T08:57:38.063Z,54.38
2022-08-09T09:00:29.932Z,53.87
2022-08-09T09:03:25.211Z,54.49
2022-08-09T09:06:05.819Z,52.82
2022-08-09T09:08:40.927Z,52.55
2022-08-09T09:11:13.909Z,53.37
2022-08-09T09:13:55.464Z,52.22
2022-08-09T09:16:32.421Z,50.25
2022-08-09T09:22:16.481Z,51.29
2022-08-09T09:24:54.540Z,50.80
2022-08-09T09:28:03.660Z,51.93
2022-08-09T09:30:39.012Z,51.48
2022-08-09T09:33:16.471Z,51.74
2022-08-09T09:36:00.630Z,50.92
2022-08-09T09:38:40.245Z,49.38
2022-08-09T09:41:09.928Z,49.11
2022-08-09T09:43:41.022Z,48.12
2022-08-09T09:46:51.986Z,48.86
2022-08-09T09:49:32.202Z,46.32
2022-08-09T09:52:35.639Z,47.68
2022-08-09T09:55:16.379Z,46.37
2022-08-09T09:58:16.808Z,47.01
2022-08-09T10:00:59.140Z,45.90
2022-08-09T10:03:57.183Z,44.65
2022-08-09T10:06:42.403Z,45.65
2022-08-09T10:09:22.182Z,44.51
2022-08-09T10:12:07.732Z,44.00
2022-08-09T10:14:47.992Z,44.47
2022-08-09T10:17:50.507Z,42.14
2022-08-09T10:20:27.713Z,42.94
2022-08-09T10:23:10.880Z,41.75
2022-08-09T10:26:06.954Z,42.68
2022-08-09T10:28:35.486Z,43.04
2022-08-09T10:34:08.397Z,42.87
2022-08-09T10:36:42.214Z,43.73
2022-08-09T10:39:15.559Z,41.17
2022-08-09T10:41:47.738Z,42.42
2022-08-09T10:44:24.797Z,41.56
2022-08-09T10:48:12.013Z,39.51
2022-08-09T10:50:30.940Z,38.70
2022-08-09T10:53:10.490Z,39.95
2022-08-09T10:55:58.735Z,39.59
2022-08-09T10:58:37.204Z,39.64
2022-08-09T11:03:02.283Z,40.27
2022-08-09T11:04:19.750Z,42.33
2022-08-09T11:07:00.724Z,43.34
2022-08-09T11:09:37.571Z,43.09
2022-08-09T11:12:17.741Z,43.84
2022-08-09T11:14:51.513Z,44.88
2022-08-09T11:17:41.818Z,44.97
2022-08-09T11:20:23.100Z,43.87
2022-08-09T11:22:56.625Z,43.36
2022-08-09T11:25:44.759Z,42.65
2022-08-09T11:28:33.812Z,42.66
2022-08-09T11:31:04.202Z,42.20
2022-08-09T11:33:47.188Z,42.70
2022-08-09T11:36:30.201Z,43.11
2022-08-09T11:39:02.345Z,43.26
2022-08-09T11:41:38.311Z,42.33
2022-08-09T11:44:08.090Z,42.07
2022-08-09T11:46:54.850Z,40.97
2022-08-09T11:50:53.385Z,41.62
2022-08-09T11:53:58.484Z,41.12
2022-08-09T11:55:52.772Z,41.45
2022-08-09T11:58:33.631Z,43.25
2022-08-09T12:01:09.022Z,42.04
2022-08-09T12:03:57.400Z,41.16
2022-08-09T12:06:32.731Z,40.53
2022-08-09T12:09:05.442Z,41.57
2022-08-09T12:11:44.510Z,39.90
2022-08-09T12:14:36.356Z,39.55
2022-08-09T12:17:34.676Z,39.27
2022-08-09T12:19:59.495Z,38.54
2022-08-09T12:22:27.437Z,39.57
2022-08-09T12:25:35.692Z,41.38
2022-08-09T12:29:15.613Z,41.18
2022-08-09T12:31:11.087Z,39.90
2022-08-09T12:34:01.075Z,40.62
2022-08-09T12:36:32.258Z,40.98
2022-08-09T12:39:01.671Z,42.22
2022-08-09T12:41:39.527Z,42.87
2022-08-09T12:44:12.778Z,47.39
2022-08-09T12:46:49.275Z,49.50
2022-08-09T12:49:18.077Z,48.20
2022-08-09T12:52:02.797Z,49.24
2022-08-09T12:55:00.589Z,49.34
2022-08-09T12:57:46.457Z,46.14
2022-08-09T13:00:25.470Z,46.79
2022-08-09T13:02:55.660Z,47.67
2022-08-09T13:05:26.176Z,46.51
2022-08-09T13:08:15.628Z,47.18
2022-08-09T13:10:53.968Z,45.34
2022-08-09T13:14:01.019Z,45.93
2022-08-09T13:16:20.682Z,44.98
2022-08-09T13:18:53.728Z,44.46
2022-08-09T13:22:35.666Z,44.93
2022-08-09T13:24:52.695Z,45.34
2022-08-09T13:27:06.097Z,44.86
2022-08-09T13:30:02.934Z,44.60
2022-08-09T13:32:27.752Z,44.01
2022-08-09T13:34:56.407Z,44.14
2022-08-09T13:37:24.762Z,44.31
2022-08-09T13:41:54.163Z,42.87
2022-08-09T13:42:59.590Z,43.04
2022-08-09T13:45:32.411Z,43.22
2022-08-09T13:48:18.102Z,42.90
2022-08-09T13:50:45.510Z,42.68
2022-08-09T13:53:16.613Z,42.84
2022-08-09T13:55:44.878Z,43.22
2022-08-09T13:58:15.374Z,42.05
2022-08-09T14:00:48.223Z,42.56
2022-08-09T14:04:03.036Z,43.06
2022-08-09T14:06:14.764Z,42.86
2022-08-09T14:08:53.207Z,42.62
2022-08-09T14:11:20.727Z,42.18
2022-08-09T14:14:23.329Z,42.18
2022-08-09T14:16:36.555Z,42.08
2022-08-09T14:19:04.288Z,42.83
2022-08-09T14:21:31.930Z,42.90
2022-08-09T14:24:05.401Z,43.06
2022-08-09T14:26:37.877Z,42.95
2022-08-09T14:30:04.182Z,41.84
2022-08-09T14:31:55.226Z,41.91
2022-08-09T14:34:27.325Z,42.16
2022-08-09T14:37:00.234Z,41.51
2022-08-09T14:39:40.530Z,40.86
2022-08-09T14:42:30.878Z,40.55
2022-08-09T14:46:40.436Z,40.23
2022-08-09T14:47:59.361Z,40.76
2022-08-09T14:50:34.216Z,40.56
2022-08-09T14:53:03.139Z,40.26
2022-08-09T14:55:34.013Z,40.19
2022-08-09T14:58:04.491Z,40.08
2022-08-09T15:00:33.647Z,38.75
2022-08-09T15:03:03.760Z,38.90
2022-08-09T15:05:31.589Z,38.00
2022-08-09T15:07:59.106Z,37.56
2022-08-09T15:10:27.638Z,35.67
2022-08-09T15:12:55.808Z,36.11
2022-08-09T15:15:24.492Z,36.20
2022-08-09T15:17:56.424Z,35.63
2022-08-09T15:21:56.832Z,34.65
2022-08-09T15:24:00.538Z,32.70
2022-08-09T15:25:59.611Z,32.79
2022-08-09T15:28:28.333Z,32.78
2022-08-09T15:31:10.320Z,32.02
2022-08-09T15:34:17.546Z,32.56
2022-08-09T15:36:30.515Z,33.55
2022-08-09T15:39:00.216Z,34.05
2022-08-09T15:41:31.224Z,34.77
2022-08-09T15:44:01.938Z,35.45
2022-08-09T15:46:33.814Z,35.54
2022-08-09T15:49:22.232Z,36.32
2022-08-09T15:52:02.901Z,36.03
2022-08-09T15:54:44.756Z,35.73
2022-08-09T15:57:35.550Z,34.80
2022-08-09T16:00:14.828Z,34.00
2022-08-09T16:02:53.904Z,33.64
2022-08-09T16:05:24.227Z,33.43
2022-08-09T16:07:51.607Z,32.95
2022-08-09T16:10:38.788Z,33.00
2022-08-09T16:13:21.253Z,32.95
2022-08-09T16:16:10.835Z,33.30
2022-08-09T16:18:44.626Z,32.40
2022-08-09T16:21:16.798Z,31.79
2022-08-09T16:23:54.599Z,32.12
2022-08-09T16:26:33.709Z,33.16
2022-08-09T16:29:10.337Z,33.85
2022-08-09T16:32:18.709Z,32.54
2022-08-09T16:34:54.520Z,32.49
2022-08-09T16:37:20.217Z,32.26
2022-08-09T16:40:09.932Z,33.18
2022-08-09T16:42:38.049Z,34.05
2022-08-09T16:45:07.895Z,34.95
2022-08-09T16:48:39.027Z,36.00
2022-08-09T16:50:30.259Z,36.53
2022-08-09T16:53:02.150Z,37.10
2022-08-09T16:55:58.548Z,37.82
2022-08-09T16:58:19.575Z,38.39
2022-08-09T17:00:49.028Z,38.74
2022-08-09T17:03:21.588Z,39.34
2022-08-09T17:06:08.685Z,39.74
2022-08-09T17:08:59.894Z,39.70
2022-08-09T17:11:40.430Z,40.15
2022-08-09T17:14:26.576Z,40.35
2022-08-09T17:17:00.216Z,40.68
2022-08-09T17:20:12.645Z,40.69
2022-08-09T17:22:35.719Z,40.68
2022-08-09T17:25:10.326Z,41.38
2022-08-09T17:27:49.168Z,41.41
2022-08-09T17:30:22.449Z,41.89
2022-08-09T17:32:55.205Z,42.70
2022-08-09T17:35:27.958Z,42.74
2022-08-09T17:38:11.838Z,42.68
2022-08-09T17:40:41.851Z,42.90
2022-08-09T17:43:34.684Z,43.20
2022-08-09T17:46:06.838Z,44.09
2022-08-09T17:48:52.197Z,44.86
2022-08-09T17:51:20.452Z,44.58
2022-08-09T17:53:52.979Z,44.80
2022-08-09T17:56:29.242Z,45.18
2022-08-09T17:59:09.371Z,45.19
2022-08-09T18:02:06.145Z,45.46
2022-08-09T18:04:27.320Z,45.52
2022-08-09T18:06:55.844Z,46.26
2022-08-09T18:09:35.808Z,46.03
2022-08-09T18:12:17.361Z,46.78
2022-08-09T18:14:53.769Z,47.08
2022-08-09T18:18:02.143Z,47.19
2022-08-09T18:20:54.435Z,47.36
2022-08-09T18:23:05.824Z,47.48
2022-08-09T18:25:50.107Z,47.70
2022-08-09T18:30:34.486Z,48.02
2022-08-09T18:31:14.887Z,48.19
2022-08-09T18:33:53.724Z,48.40
2022-08-09T18:36:25.645Z,48.70
2022-08-09T18:39:02.499Z,48.84
2022-08-09T18:41:34.882Z,49.23
2022-08-09T18:44:13.276Z,49.03
2022-08-09T18:46:51.473Z,49.43
2022-08-09T18:49:32.323Z,49.57
2022-08-09T18:52:09.221Z,49.93
2022-08-09T18:54:49.566Z,50.20
2022-08-09T18:57:22.122Z,50.38
2022-08-09T19:00:01.665Z,50.63
2022-08-09T19:02:32.506Z,51.06
2022-08-09T19:05:14.629Z,50.92
2022-08-09T19:08:04.412Z,51.09
2022-08-09T19:10:37.204Z,51.12
2022-08-09T19:13:22.890Z,51.29
2022-08-09T19:15:58.757Z,52.14
2022-08-09T19:18:33.488Z,49.90
2022-08-09T19:21:09.200Z,48.35
2022-08-09T19:24:35.828Z,46.40
2022-08-09T19:26:31.311Z,45.95
2022-08-09T19:29:01.586Z,44.28
2022-08-09T19:31:45.642Z,43.69
2022-08-09T19:34:21.709Z,43.73
2022-08-09T19:36:52.948Z,43.93
2022-08-09T19:39:43.818Z,43.75
2022-08-09T19:42:08.157Z,43.54
2022-08-09T19:44:36.868Z,43.61
2022-08-09T19:47:04.245Z,43.55
2022-08-09T19:50:10.331Z,43.67
2022-08-09T19:52:18.805Z,44.08
2022-08-09T19:54:46.706Z,44.28
2022-08-09T19:57:13.879Z,44.15
2022-08-09T19:59:59.229Z,44.36
2022-08-09T20:04:12.141Z,44.31
2022-08-09T20:05:16.454Z,44.54
2022-08-09T20:07:59.445Z,44.65
2022-08-09T20:10:34.905Z,44.75
2022-08-09T20:13:05.875Z,44.43
2022-08-09T20:16:36.579Z,43.91
2022-08-09T20:18:22.440Z,43.38
2022-08-09T20:20:55.398Z,43.41
2022-08-09T20:23:23.830Z,43.15
2022-08-09T20:25:53.814Z,42.76
2022-08-09T20:28:27.494Z,43.13
2022-08-09T20:30:55.793Z,43.14
2022-08-09T20:33:23.946Z,42.79
2022-08-09T20:35:51.834Z,42.36
2022-08-09T20:38:31.470Z,41.99
2022-08-09T20:41:07.751Z,42.47
2022-08-09T20:43:35.286Z,41.98
2022-08-09T20:46:15.466Z,42.04
2022-08-09T20:48:49.779Z,41.96
2022-08-09T20:51:23.072Z,41.82
2022-08-09T20:53:51.544Z,41.72
2022-08-09T20:56:21.853Z,42.08
2022-08-09T20:58:50.840Z,41.87
2022-08-09T21:01:35.246Z,42.19
2022-08-09T21:05:52.668Z,41.91
2022-08-09T21:07:11.712Z,41.77
2022-08-09T21:09:55.334Z,41.77
2022-08-09T21:15:13.767Z,42.16
2022-08-09T21:20:29.691Z,41.95
2022-08-09T21:22:59.372Z,41.63
2022-08-09T21:25:56.197Z,42.12
2022-08-09T21:28:34.089Z,41.69
2022-08-09T21:31:16.192Z,41.52
2022-08-09T21:33:50.893Z,41.50
2022-08-09T21:36:20.939Z,41.62
2022-08-09T21:38:57.797Z,41.77
2022-08-09T21:42:04.008Z,41.89
2022-08-09T21:44:33.217Z,42.03
2022-08-09T21:47:07.621Z,41.86
2022-08-09T21:49:42.976Z,42.17
2022-08-09T21:52:16.600Z,41.76
2022-08-09T21:54:59.554Z,41.72
2022-08-09T21:57:38.788Z,42.15
2022-08-09T22:00:25.937Z,42.31
2022-08-09T22:02:59.483Z,42.06
2022-08-09T22:05:35.382Z,42.13
2022-08-09T22:08:11.941Z,42.39
2022-08-09T22:11:49.948Z,42.16
2022-08-09T22:13:34.841Z,42.32
2022-08-09T22:16:07.768Z,42.71
2022-08-09T22:18:37.574Z,43.02
2022-08-09T22:21:09.381Z,43.58
2022-08-09T22:23:58.932Z,43.62
2022-08-09T22:26:35.004Z,43.98
2022-08-09T22:29:09.041Z,44.42
2022-08-09T22:31:44.240Z,44.72
2022-08-09T22:34:25.887Z,44.99
2022-08-09T22:36:58.385Z,45.34
2022-08-09T22:39:57.098Z,45.24
2022-08-09T22:42:21.845Z,45.40
2022-08-09T22:48:04.610Z,45.59
2022-08-09T22:48:34.064Z,45.97
2022-08-09T22:50:31.578Z,46.02
2022-08-09T22:53:03.492Z,46.28
2022-08-09T22:56:05.800Z,46.56
2022-08-09T22:58:30.874Z,46.61
2022-08-09T23:01:03.380Z,46.78
2022-08-09T23:04:03.782Z,46.87
2022-08-09T23:06:34.792Z,47.04
2022-08-09T23:09:04.420Z,47.36
2022-08-09T23:11:32.181Z,47.62
2022-08-09T23:13:59.735Z,47.40
2022-08-09T23:16:26.854Z,47.35
2022-08-09T23:18:54.219Z,47.55
2022-08-09T23:21:24.575Z,47.52
2022-08-09T23:24:05.050Z,47.69
2022-08-09T23:26:37.545Z,47.96
2022-08-09T23:29:06.087Z,47.83
2022-08-09T23:31:33.377Z,47.92
2022-08-09T23:34:00.616Z,48.08
2022-08-09T23:36:30.093Z,48.13
2022-08-09T23:38:57.212Z,48.08
2022-08-09T23:41:28.398Z,48.33
2022-08-09T23:43:58.555Z,48.25
2022-08-09T23:46:26.347Z,48.27
2022-08-09T23:48:53.450Z,48.40
2022-08-09T23:51:23.406Z,48.27
2022-08-09T23:53:52.544Z,48.44
2022-08-09T23:56:52.508Z,48.57
2022-08-09T23:59:10.522Z,48.62
